createdAt,value
2018-08-09T07:27:55.390Z,7.80
2018-08-09T07:53:00.499Z,7.45
2018-08-09T07:55:29.394Z,7.20
2018-08-09T08:02:54.545Z,8.70
2018-08-09T08:07:51.736Z,8.10
2018-08-09T08:12:48.928Z,7.85
2018-08-09T08:15:17.940Z,7.80
2018-08-09T08:17:47.866Z,7.23
2018-08-09T08:20:16.779Z,7.17
2018-08-09T08:22:46.125Z,7.70
2018-08-09T08:25:15.386Z,7.13
2018-08-09T08:27:44.523Z,7.87
2018-08-09T08:30:14.362Z,7.17
2018-08-09T08:32:43.674Z,6.33
2018-08-09T08:35:13.100Z,7.50
2018-08-09T08:37:42.199Z,7.63
2018-08-09T08:43:38.961Z,6.13
2018-08-09T09:16:07.704Z,5.87
2018-08-09T09:22:14.434Z,5.80
2018-08-09T09:25:11.794Z,6.00
2018-08-09T09:28:05.026Z,6.00
2018-08-09T09:30:47.802Z,5.47
2018-08-09T09:33:16.785Z,6.17
2018-08-09T09:36:05.755Z,5.90
2018-08-09T09:38:34.811Z,6.03
2018-08-09T09:41:04.683Z,4.80
2018-08-09T09:43:33.814Z,5.80
2018-08-09T09:46:02.804Z,5.50
2018-08-09T09:48:31.712Z,5.20
2018-08-09T09:51:00.420Z,5.40
2018-08-09T09:53:29.178Z,5.37
2018-08-09T09:55:59.423Z,5.43
2018-08-09T09:58:28.601Z,5.03
2018-08-09T10:01:03.195Z,5.07
2018-08-09T10:03:32.328Z,5.00
2018-08-09T10:06:01.246Z,5.23
2018-08-09T10:08:30.187Z,5.30
2018-08-09T10:10:59.173Z,5.63
2018-08-09T10:13:28.800Z,4.23
2018-08-09T10:15:57.634Z,5.37
2018-08-09T10:18:26.557Z,5.10
2018-08-09T10:20:55.884Z,5.97
2018-08-09T10:23:24.781Z,5.03
2018-08-09T10:25:54.037Z,5.97
2018-08-09T10:28:23.237Z,5.73
2018-08-09T10:30:52.289Z,6.23
2018-08-09T10:33:21.066Z,5.87
2018-08-09T10:35:49.888Z,5.57
2018-08-09T10:38:18.476Z,5.40
2018-08-09T10:40:47.301Z,6.30
2018-08-09T10:43:15.963Z,5.63
2018-08-09T10:45:44.791Z,4.87
2018-08-09T10:48:13.763Z,6.40
2018-08-09T10:50:42.374Z,5.77
2018-08-09T10:53:11.187Z,5.40
2018-08-09T10:55:40.178Z,5.53
2018-08-09T10:58:08.751Z,5.70
2018-08-09T11:00:37.524Z,6.20
2018-08-09T11:03:06.511Z,6.50
2018-08-09T11:05:35.099Z,7.10
2018-08-09T11:08:04.033Z,6.03
2018-08-09T11:10:32.755Z,6.27
2018-08-09T11:13:01.890Z,4.97
2018-08-09T11:15:30.554Z,6.30
2018-08-09T11:17:59.561Z,6.20
2018-08-09T11:20:28.369Z,5.90
2018-08-09T11:22:57.207Z,5.70
2018-08-09T11:25:25.782Z,6.33
2018-08-09T11:27:55.032Z,5.80
2018-08-09T11:30:24.448Z,6.67
2018-08-09T11:32:53.879Z,6.00
2018-08-09T11:35:23.629Z,6.23
2018-08-09T11:37:52.849Z,5.90
2018-08-09T11:40:22.371Z,6.20
2018-08-09T11:42:53.122Z,5.90
2018-08-09T11:45:22.813Z,6.03
2018-08-09T11:47:52.258Z,6.23
2018-08-09T11:50:22.700Z,5.63
2018-08-09T11:52:51.783Z,6.27
2018-08-09T11:55:21.490Z,6.90
2018-08-09T11:57:51.197Z,7.00
2018-08-09T12:00:20.381Z,6.27
2018-08-09T12:02:50.545Z,6.10
2018-08-09T12:06:01.701Z,6.17
2018-08-09T12:08:32.241Z,6.43
2018-08-09T12:11:02.378Z,6.00
2018-08-09T12:13:48.024Z,6.37
2018-08-09T12:16:32.834Z,6.30
2018-08-09T12:19:18.569Z,6.30
2018-08-09T12:22:02.327Z,7.23
2018-08-09T12:24:47.199Z,6.00
2018-08-09T12:27:31.273Z,7.50
2018-08-09T12:30:20.028Z,6.30
2018-08-09T12:33:03.769Z,7.43
2018-08-09T12:36:16.258Z,7.03
2018-08-09T12:42:16.244Z,7.83
2018-08-09T12:45:00.304Z,7.27
2018-08-09T12:47:29.056Z,8.33
2018-08-09T12:50:15.932Z,7.43
2018-08-09T12:53:03.679Z,7.43
2018-08-09T12:55:44.841Z,7.13
2018-08-09T12:58:19.839Z,7.73
2018-08-09T13:03:33.700Z,8.00
2018-08-09T13:06:10.352Z,8.33
2018-08-09T13:08:53.005Z,8.23
2018-08-09T13:11:29.520Z,7.83
2018-08-09T13:14:25.529Z,8.57
2018-08-09T13:17:27.962Z,8.73
2018-08-09T13:19:56.901Z,7.70
2018-08-09T13:22:29.011Z,8.20
2018-08-09T13:25:13.919Z,7.93
2018-08-09T13:27:57.776Z,8.10
2018-08-09T13:30:48.008Z,8.47
2018-08-09T13:33:32.730Z,7.77
2018-08-09T13:36:19.010Z,9.13
2018-08-09T13:39:02.633Z,7.63
2018-08-09T13:41:31.175Z,8.30
2018-08-09T13:44:14.456Z,7.50
2018-08-09T13:47:07.029Z,8.20
2018-08-09T13:49:36.242Z,8.23
2018-08-09T13:52:05.185Z,8.00
2018-08-09T13:54:35.058Z,7.60
2018-08-09T13:57:03.618Z,7.40
2018-08-09T13:59:32.725Z,7.60
2018-08-09T14:02:02.614Z,7.57
2018-08-09T14:04:31.764Z,8.30
2018-08-09T14:07:00.753Z,7.03
2018-08-09T14:09:29.639Z,7.90
2018-08-09T14:11:58.622Z,7.60
2018-08-09T14:14:27.595Z,8.83
2018-08-09T14:16:56.632Z,8.10
2018-08-09T14:19:25.374Z,8.10
2018-08-09T14:21:54.111Z,8.57
2018-08-09T14:24:24.435Z,7.40
2018-08-09T14:26:53.212Z,7.47
2018-08-09T14:29:22.136Z,7.90
2018-08-09T14:31:52.124Z,7.17
2018-08-09T14:34:20.947Z,8.33
2018-08-09T14:36:49.733Z,8.57
2018-08-09T14:39:18.734Z,7.43
2018-08-09T14:41:47.666Z,7.40
2018-08-09T14:44:16.384Z,7.30
2018-08-09T14:46:45.395Z,7.80
2018-08-09T14:49:14.917Z,7.90
2018-08-09T14:51:44.074Z,7.67
2018-08-09T14:54:14.126Z,6.20
2018-08-09T14:56:43.458Z,7.77
2018-08-09T14:59:12.764Z,7.80
2018-08-09T15:01:41.645Z,8.40
2018-08-09T15:04:10.684Z,7.20
2018-08-09T15:06:39.573Z,7.10
2018-08-09T15:09:10.348Z,7.50
2018-08-09T15:11:39.329Z,7.43
2018-08-09T15:14:09.342Z,7.33
2018-08-09T15:16:38.469Z,7.53
2018-08-09T15:19:07.984Z,7.47
2018-08-09T15:21:36.958Z,7.30
2018-08-09T15:24:06.044Z,7.33
2018-08-09T15:26:34.936Z,7.07
2018-08-09T15:29:04.166Z,6.53
2018-08-09T15:31:33.937Z,7.47
2018-08-09T15:34:04.179Z,6.60
2018-08-09T15:36:34.132Z,7.27
2018-08-09T15:39:05.376Z,7.20
2018-08-09T15:41:34.945Z,6.80
2018-08-09T15:44:04.871Z,7.20
2018-08-09T15:46:35.990Z,7.20
2018-08-09T15:49:05.318Z,7.60
2018-08-09T15:51:35.098Z,7.43
2018-08-09T15:56:57.556Z,6.90
2018-08-09T15:59:27.914Z,6.83
2018-08-09T16:01:58.025Z,6.50
2018-08-09T16:04:27.571Z,6.80
2018-08-09T16:06:57.390Z,7.00
2018-08-09T16:09:26.952Z,7.20
2018-08-09T16:11:56.292Z,6.00
2018-08-09T16:14:25.885Z,6.47
2018-08-09T16:16:55.275Z,6.60
2018-08-09T16:19:25.169Z,6.33
2018-08-09T16:21:54.925Z,6.67
2018-08-09T16:24:24.222Z,6.20
2018-08-09T16:26:54.237Z,6.70
2018-08-09T16:29:24.243Z,6.57
2018-08-09T16:31:53.527Z,6.00
2018-08-09T16:34:22.874Z,6.30
2018-08-09T16:36:51.612Z,6.67
2018-08-09T16:39:20.902Z,5.83
2018-08-09T16:41:50.037Z,6.23
2018-08-09T16:44:19.118Z,5.50
2018-08-09T16:46:48.100Z,5.90
2018-08-09T16:49:16.930Z,6.10
2018-08-09T16:51:45.883Z,5.57
2018-08-09T16:54:14.590Z,5.63
2018-08-09T16:56:43.607Z,5.50
2018-08-09T16:59:12.756Z,6.10
2018-08-09T17:01:41.583Z,6.10
2018-08-09T17:04:11.042Z,6.40
2018-08-09T17:06:41.981Z,6.23
2018-08-09T17:09:15.178Z,6.03
2018-08-09T17:11:46.345Z,5.87
2018-08-09T17:14:16.804Z,5.87
2018-08-09T17:16:46.908Z,6.83
2018-08-09T17:19:17.229Z,6.13
2018-08-09T17:21:46.907Z,5.93
2018-08-09T17:24:17.041Z,6.33
2018-08-09T17:26:46.591Z,5.30
2018-08-09T17:29:16.437Z,6.30
2018-08-09T17:31:46.192Z,6.33
2018-08-09T17:34:15.942Z,5.70
2018-08-09T17:39:32.069Z,6.30
2018-08-09T17:42:02.198Z,5.67
2018-08-09T17:44:37.072Z,6.10
2018-08-09T17:47:06.525Z,7.00
2018-08-09T17:49:36.335Z,7.03
2018-08-09T17:52:06.110Z,6.30
2018-08-09T17:54:35.245Z,6.10
2018-08-09T17:57:04.702Z,6.80
2018-08-09T17:59:34.750Z,5.80
2018-08-09T18:02:03.613Z,6.73
2018-08-09T18:04:32.610Z,6.30
2018-08-09T18:07:01.733Z,7.57
2018-08-09T18:09:30.715Z,6.30
2018-08-09T18:12:05.930Z,6.50
2018-08-09T18:14:34.723Z,5.67
2018-08-09T18:17:03.484Z,6.80
2018-08-09T18:19:32.393Z,6.10
2018-08-09T18:22:01.163Z,6.37
2018-08-09T18:24:30.078Z,5.80
2018-08-09T18:26:59.099Z,7.00
2018-08-09T18:29:28.044Z,7.10
2018-08-09T18:31:57.087Z,6.47
2018-08-09T18:34:26.498Z,7.30
2018-08-09T18:36:55.320Z,6.73
2018-08-09T18:39:24.086Z,5.70
2018-08-09T18:41:52.885Z,6.67
2018-08-09T18:44:21.652Z,7.00
2018-08-09T18:46:50.567Z,6.67
2018-08-09T18:49:20.412Z,6.70
2018-08-09T18:51:49.797Z,6.87
2018-08-09T18:54:20.861Z,7.23
2018-08-09T18:59:42.662Z,6.97
2018-08-09T19:02:11.647Z,7.17
2018-08-09T19:04:41.023Z,7.20
2018-08-09T19:07:10.867Z,6.40
2018-08-09T19:09:40.294Z,5.80
2018-08-09T19:12:09.181Z,5.17
2018-08-09T19:14:39.271Z,6.47
2018-08-09T19:17:08.345Z,6.17
2018-08-09T19:19:37.326Z,6.10
2018-08-09T19:22:06.480Z,5.83
2018-08-09T19:24:36.000Z,5.63
2018-08-09T19:27:05.185Z,4.67
2018-08-09T19:29:34.382Z,5.20
2018-08-09T19:32:03.508Z,6.17
2018-08-09T19:34:37.609Z,5.90
2018-08-09T19:37:20.004Z,5.67
2018-08-09T19:39:49.413Z,4.63
2018-08-09T19:42:18.906Z,5.30
2018-08-09T19:44:48.762Z,4.80
2018-08-09T19:50:14.778Z,5.83
2018-08-09T19:52:45.202Z,7.93
2018-08-09T19:57:56.731Z,5.23
2018-08-09T20:00:29.173Z,5.50
2018-08-09T20:02:59.464Z,4.80
2018-08-09T20:05:29.453Z,4.73
2018-08-09T20:07:59.558Z,5.23
2018-08-09T20:10:28.964Z,5.10
2018-08-09T20:12:58.801Z,4.93
2018-08-09T20:15:28.928Z,5.37
2018-08-09T20:17:58.483Z,6.27
2018-08-09T20:20:29.416Z,5.53
2018-08-09T20:22:58.797Z,5.07
2018-08-09T20:25:28.763Z,5.40
2018-08-09T20:27:58.931Z,4.93
2018-08-09T20:30:29.931Z,5.60
2018-08-09T20:33:00.838Z,5.63
2018-08-09T20:35:30.663Z,5.40
2018-08-09T20:37:59.635Z,5.90
2018-08-09T20:40:32.382Z,5.77
2018-08-09T20:43:01.427Z,6.40
2018-08-09T20:48:12.393Z,5.33
2018-08-09T20:50:44.341Z,5.80
2018-08-09T20:56:00.326Z,4.75
2018-08-09T21:01:15.598Z,4.75
2018-08-09T21:03:46.308Z,5.10
2018-08-09T21:09:11.715Z,4.30
2018-08-09T21:11:44.588Z,4.50
2018-08-09T21:14:17.229Z,3.70
2018-08-09T21:16:55.094Z,3.50
2018-08-09T21:22:25.045Z,3.90
2018-08-09T21:24:57.145Z,3.90
2018-08-09T21:30:25.461Z,4.40
2018-08-09T21:32:59.890Z,3.80
2018-08-09T21:35:33.040Z,4.27
2018-08-09T21:38:14.860Z,3.57
2018-08-09T21:40:44.834Z,3.80
2018-08-09T21:43:15.916Z,3.60
2018-08-09T21:46:01.206Z,3.23
2018-08-09T21:48:35.921Z,3.30
2018-08-09T21:51:05.501Z,3.67
2018-08-09T21:53:40.521Z,3.67
2018-08-09T21:56:14.251Z,3.70
2018-08-09T22:04:29.204Z,3.17
2018-08-09T22:07:05.160Z,2.90
2018-08-09T22:09:44.684Z,2.80
2018-08-09T22:12:23.749Z,3.50
2018-08-09T22:17:53.626Z,3.50
2018-08-09T22:23:19.163Z,3.30
2018-08-09T22:25:48.844Z,3.47
2018-08-09T22:28:43.847Z,3.43
2018-08-09T22:37:06.686Z,3.20
2018-08-09T22:42:08.522Z,2.70
2018-08-09T22:47:25.956Z,3.30
2018-08-09T23:36:04.197Z,3.00
